sensor_id;sensor_type;location;lat;lon;timestamp;pressure;altitude;pressure_sealevel;temperature;humidity
48424;BME280;34232;42.502;26.014;2022-08-19T00:02:24;99528.50;;;26.31;60.62
48424;BME280;34232;42.502;26.014;2022-08-19T00:04:50;99526.97;;;26.24;60.80
48424;BME280;34232;42.502;26.014;2022-08-19T00:07:17;99520.06;;;26.16;61.04
48424;BME280;34232;42.502;26.014;2022-08-19T00:09:43;99529.97;;;26.10;61.67
48424;BME280;34232;42.502;26.014;2022-08-19T00:12:08;99531.28;;;26.08;61.59
48424;BME280;34232;42.502;26.014;2022-08-19T00:14:34;99530.91;;;26.04;61.91
48424;BME280;34232;42.502;26.014;2022-08-19T00:17:00;99534.91;;;26.02;61.87
48424;BME280;34232;42.502;26.014;2022-08-19T00:19:25;99531.16;;;26.03;62.19
48424;BME280;34232;42.502;26.014;2022-08-19T00:21:51;99529.03;;;26.05;62.09
48424;BME280;34232;42.502;26.014;2022-08-19T00:24:16;99527.41;;;26.04;62.26
48424;BME280;34232;42.502;26.014;2022-08-19T00:26:42;99531.97;;;26.03;62.12
48424;BME280;34232;42.502;26.014;2022-08-19T00:29:09;99526.59;;;26.03;62.26
48424;BME280;34232;42.502;26.014;2022-08-19T00:31:35;99523.66;;;26.05;61.99
48424;BME280;34232;42.502;26.014;2022-08-19T00:34:00;99527.41;;;26.04;62.08
48424;BME280;34232;42.502;26.014;2022-08-19T00:36:26;99515.22;;;26.01;62.39
48424;BME280;34232;42.502;26.014;2022-08-19T00:38:51;99511.09;;;25.99;62.45
48424;BME280;34232;42.502;26.014;2022-08-19T00:41:18;99508.91;;;25.96;62.54
48424;BME280;34232;42.502;26.014;2022-08-19T00:46:26;99516.19;;;25.84;63.20
48424;BME280;34232;42.502;26.014;2022-08-19T00:48:52;99517.16;;;25.77;63.24
48424;BME280;34232;42.502;26.014;2022-08-19T00:51:17;99516.81;;;25.74;63.57
48424;BME280;34232;42.502;26.014;2022-08-19T00:53:42;99525.38;;;25.71;63.77
48424;BME280;34232;42.502;26.014;2022-08-19T00:56:08;99525.84;;;25.68;63.89
48424;BME280;34232;42.502;26.014;2022-08-19T00:58:34;99519.56;;;25.62;64.14
48424;BME280;34232;42.502;26.014;2022-08-19T01:01:00;99521.19;;;25.63;64.01
48424;BME280;34232;42.502;26.014;2022-08-19T01:03:25;99525.53;;;25.64;63.73
48424;BME280;34232;42.502;26.014;2022-08-19T01:05:51;99517.44;;;25.64;63.69
48424;BME280;34232;42.502;26.014;2022-08-19T01:08:19;99515.06;;;25.68;63.27
48424;BME280;34232;42.502;26.014;2022-08-19T01:10:45;99510.50;;;25.68;63.08
48424;BME280;34232;42.502;26.014;2022-08-19T01:13:13;99515.88;;;25.68;62.87
48424;BME280;34232;42.502;26.014;2022-08-19T01:15:43;99514.38;;;25.72;62.70
48424;BME280;34232;42.502;26.014;2022-08-19T01:18:10;99512.72;;;25.71;62.55
48424;BME280;34232;42.502;26.014;2022-08-19T01:20:37;99505.22;;;25.73;62.38
48424;BME280;34232;42.502;26.014;2022-08-19T01:23:02;99505.22;;;25.73;62.60
48424;BME280;34232;42.502;26.014;2022-08-19T01:25:32;99499.59;;;25.75;62.46
48424;BME280;34232;42.502;26.014;2022-08-19T01:28:00;99503.09;;;25.75;62.60
48424;BME280;34232;42.502;26.014;2022-08-19T01:30:30;99504.41;;;25.73;62.76
48424;BME280;34232;42.502;26.014;2022-08-19T01:32:56;99508.97;;;25.72;63.00
48424;BME280;34232;42.502;26.014;2022-08-19T01:35:22;99506.50;;;25.71;63.03
48424;BME280;34232;42.502;26.014;2022-08-19T01:37:59;99506.50;;;25.71;62.90
48424;BME280;34232;42.502;26.014;2022-08-19T01:40:26;99502.88;;;25.65;62.99
48424;BME280;34232;42.502;26.014;2022-08-19T01:42:52;99511.22;;;25.64;62.67
48424;BME280;34232;42.502;26.014;2022-08-19T01:45:19;99500.44;;;25.64;63.11
48424;BME280;34232;42.502;26.014;2022-08-19T01:47:45;99511.47;;;25.62;63.10
48424;BME280;34232;42.502;26.014;2022-08-19T01:50:10;99514.97;;;25.63;63.15
48424;BME280;34232;42.502;26.014;2022-08-19T01:52:36;99508.16;;;25.60;63.31
48424;BME280;34232;42.502;26.014;2022-08-19T01:55:03;99506.16;;;25.56;63.62
48424;BME280;34232;42.502;26.014;2022-08-19T01:57:28;99501.00;;;25.54;63.67
48424;BME280;34232;42.502;26.014;2022-08-19T01:59:54;99494.22;;;25.40;64.05
48424;BME280;34232;42.502;26.014;2022-08-19T02:02:19;99492.59;;;25.39;64.29
48424;BME280;34232;42.502;26.014;2022-08-19T02:04:44;99490.47;;;25.41;64.44
48424;BME280;34232;42.502;26.014;2022-08-19T02:07:11;99489.19;;;25.43;63.89
48424;BME280;34232;42.502;26.014;2022-08-19T02:09:36;99493.53;;;25.44;63.70
48424;BME280;34232;42.502;26.014;2022-08-19T02:12:03;99498.31;;;25.42;64.04
48424;BME280;34232;42.502;26.014;2022-08-19T02:14:28;99503.84;;;25.36;63.97
48424;BME280;34232;42.502;26.014;2022-08-19T02:16:53;99506.75;;;25.34;62.03
48424;BME280;34232;42.502;26.014;2022-08-19T02:19:19;99504.56;;;25.31;60.76
48424;BME280;34232;42.502;26.014;2022-08-19T02:21:44;99512.75;;;25.25;60.91
48424;BME280;34232;42.502;26.014;2022-08-19T02:24:09;99524.00;;;25.22;61.71
48424;BME280;34232;42.502;26.014;2022-08-19T02:26:35;99518.00;;;25.20;62.43
48424;BME280;34232;42.502;26.014;2022-08-19T02:29:00;99524.13;;;25.15;62.02
48424;BME280;34232;42.502;26.014;2022-08-19T02:31:25;99520.25;;;25.11;62.24
48424;BME280;34232;42.502;26.014;2022-08-19T02:33:53;99521.53;;;25.08;62.84
48424;BME280;34232;42.502;26.014;2022-08-19T02:36:18;99532.91;;;25.10;62.52
48424;BME280;34232;42.502;26.014;2022-08-19T02:38:43;99538.28;;;25.10;62.95
48424;BME280;34232;42.502;26.014;2022-08-19T02:41:14;99551.16;;;25.08;63.15
48424;BME280;34232;42.502;26.014;2022-08-19T02:43:40;99554.47;;;25.10;63.30
48424;BME280;34232;42.502;26.014;2022-08-19T02:46:12;99549.66;;;25.13;63.43
48424;BME280;34232;42.502;26.014;2022-08-19T02:48:37;99553.19;;;25.13;63.80
48424;BME280;34232;42.502;26.014;2022-08-19T02:51:02;99544.88;;;25.15;64.01
48424;BME280;34232;42.502;26.014;2022-08-19T02:53:28;99547.06;;;25.18;63.97
48424;BME280;34232;42.502;26.014;2022-08-19T02:55:55;99553.28;;;25.18;64.41
48424;BME280;34232;42.502;26.014;2022-08-19T02:58:21;99558.34;;;25.15;64.53
48424;BME280;34232;42.502;26.014;2022-08-19T03:00:47;99551.91;;;25.16;64.58
48424;BME280;34232;42.502;26.014;2022-08-19T03:03:14;99557.63;;;25.19;64.54
48424;BME280;34232;42.502;26.014;2022-08-19T03:05:39;99555.63;;;25.15;64.90
48424;BME280;34232;42.502;26.014;2022-08-19T03:08:05;99559.38;;;25.14;65.19
48424;BME280;34232;42.502;26.014;2022-08-19T03:10:31;99556.91;;;25.12;65.35
48424;BME280;34232;42.502;26.014;2022-08-19T03:12:56;99566.06;;;25.11;65.48
48424;BME280;34232;42.502;26.014;2022-08-19T03:18:31;99564.88;;;25.07;65.58
48424;BME280;34232;42.502;26.014;2022-08-19T03:20:56;99566.97;;;25.05;65.90
48424;BME280;34232;42.502;26.014;2022-08-19T03:23:22;99569.44;;;25.06;66.19
48424;BME280;34232;42.502;26.014;2022-08-19T03:25:48;99575.28;;;25.03;66.00
48424;BME280;34232;42.502;26.014;2022-08-19T03:28:14;99566.75;;;25.06;66.07
48424;BME280;34232;42.502;26.014;2022-08-19T03:30:40;99566.06;;;25.11;65.56
48424;BME280;34232;42.502;26.014;2022-08-19T03:33:06;99565.22;;;25.10;65.15
48424;BME280;34232;42.502;26.014;2022-08-19T03:35:32;99574.72;;;25.13;65.29
48424;BME280;34232;42.502;26.014;2022-08-19T03:37:58;99577.66;;;25.12;65.44
48424;BME280;34232;42.502;26.014;2022-08-19T03:40:24;99573.91;;;25.13;65.33
48424;BME280;34232;42.502;26.014;2022-08-19T03:42:49;99590.06;;;25.13;65.54
48424;BME280;34232;42.502;26.014;2022-08-19T03:45:15;99594.63;;;25.12;65.35
48424;BME280;34232;42.502;26.014;2022-08-19T03:47:40;99585.75;;;25.12;65.38
48424;BME280;34232;42.502;26.014;2022-08-19T03:50:05;99591.72;;;25.14;65.27
48424;BME280;34232;42.502;26.014;2022-08-19T03:52:31;99600.94;;;25.18;65.21
48424;BME280;34232;42.502;26.014;2022-08-19T03:54:56;99596.38;;;25.18;65.19
48424;BME280;34232;42.502;26.014;2022-08-19T03:57:21;99599.09;;;25.18;65.45
48424;BME280;34232;42.502;26.014;2022-08-19T03:59:47;99604.47;;;25.18;65.53
48424;BME280;34232;42.502;26.014;2022-08-19T04:02:12;99606.94;;;25.20;65.44
48424;BME280;34232;42.502;26.014;2022-08-19T04:04:38;99600.50;;;25.21;65.49
48424;BME280;34232;42.502;26.014;2022-08-19T04:07:04;99601.53;;;25.20;65.60
48424;BME280;34232;42.502;26.014;2022-08-19T04:09:29;99600.38;;;25.16;66.38
48424;BME280;34232;42.502;26.014;2022-08-19T04:11:55;99598.25;;;25.18;65.99
48424;BME280;34232;42.502;26.014;2022-08-19T04:14:24;99610.69;;;25.19;66.00
48424;BME280;34232;42.502;26.014;2022-08-19T04:16:50;99606.94;;;25.20;66.59
48424;BME280;34232;42.502;26.014;2022-08-19T04:19:16;99612.69;;;25.23;66.19
48424;BME280;34232;42.502;26.014;2022-08-19T04:21:42;99610.59;;;25.25;66.01
48424;BME280;34232;42.502;26.014;2022-08-19T04:24:08;99610.34;;;25.27;65.64
48424;BME280;34232;42.502;26.014;2022-08-19T04:26:34;99615.28;;;25.30;65.95
48424;BME280;34232;42.502;26.014;2022-08-19T04:29:01;99614.00;;;25.32;65.89
48424;BME280;34232;42.502;26.014;2022-08-19T04:31:27;99614.22;;;25.31;66.12
48424;BME280;34232;42.502;26.014;2022-08-19T04:33:53;99619.03;;;25.40;66.11
48424;BME280;34232;42.502;26.014;2022-08-19T04:36:23;99623.72;;;25.45;66.07
48424;BME280;34232;42.502;26.014;2022-08-19T04:38:49;99620.66;;;25.53;66.13
48424;BME280;34232;42.502;26.014;2022-08-19T04:41:17;99617.97;;;25.53;66.16
48424;BME280;34232;42.502;26.014;2022-08-19T04:44:01;99616.00;;;25.60;66.02
48424;BME280;34232;42.502;26.014;2022-08-19T04:46:27;99615.06;;;25.66;65.12
48424;BME280;34232;42.502;26.014;2022-08-19T04:48:55;99613.09;;;25.73;64.77
48424;BME280;34232;42.502;26.014;2022-08-19T04:51:21;99606.75;;;25.79;64.34
48424;BME280;34232;42.502;26.014;2022-08-19T04:53:47;99609.06;;;25.88;66.24
48424;BME280;34232;42.502;26.014;2022-08-19T04:56:14;99610.25;;;25.92;66.64
48424;BME280;34232;42.502;26.014;2022-08-19T04:58:40;99617.88;;;25.95;66.37
48424;BME280;34232;42.502;26.014;2022-08-19T05:01:21;99624.41;;;25.99;66.18
48424;BME280;34232;42.502;26.014;2022-08-19T05:03:46;99619.59;;;26.01;66.19
48424;BME280;34232;42.502;26.014;2022-08-19T05:06:13;99623.00;;;26.08;65.93
48424;BME280;34232;42.502;26.014;2022-08-19T05:08:39;99621.09;;;26.20;65.77
48424;BME280;34232;42.502;26.014;2022-08-19T05:11:29;99614.03;;;26.31;62.31
48424;BME280;34232;42.502;26.014;2022-08-19T05:13:55;99617.31;;;26.44;61.36
48424;BME280;34232;42.502;26.014;2022-08-19T05:16:20;99615.97;;;26.59;61.21
48424;BME280;34232;42.502;26.014;2022-08-19T05:18:46;99615.19;;;26.75;61.13
48424;BME280;34232;42.502;26.014;2022-08-19T05:21:31;99612.59;;;26.97;59.94
48424;BME280;34232;42.502;26.014;2022-08-19T05:24:15;99613.78;;;27.17;57.86
48424;BME280;34232;42.502;26.014;2022-08-19T05:26:41;99619.84;;;27.41;57.44
48424;BME280;34232;42.502;26.014;2022-08-19T05:29:07;99615.09;;;27.65;56.33
48424;BME280;34232;42.502;26.014;2022-08-19T05:31:33;99608.09;;;27.86;53.22
48424;BME280;34232;42.502;26.014;2022-08-19T05:34:00;99607.00;;;28.09;52.24
48424;BME280;34232;42.502;26.014;2022-08-19T05:36:26;99611.66;;;28.30;53.77
48424;BME280;34232;42.502;26.014;2022-08-19T05:38:51;99610.25;;;28.49;53.45
48424;BME280;34232;42.502;26.014;2022-08-19T05:41:18;99603.44;;;28.74;53.38
48424;BME280;34232;42.502;26.014;2022-08-19T05:43:44;99598.75;;;28.91;51.58
48424;BME280;34232;42.502;26.014;2022-08-19T05:46:15;99604.88;;;29.08;50.87
48424;BME280;34232;42.502;26.014;2022-08-19T05:48:40;99602.78;;;29.15;49.69
48424;BME280;34232;42.502;26.014;2022-08-19T05:51:06;99602.03;;;29.25;50.67
48424;BME280;34232;42.502;26.014;2022-08-19T05:53:32;99607.25;;;29.32;49.99
48424;BME280;34232;42.502;26.014;2022-08-19T05:56:03;99602.44;;;29.39;49.72
48424;BME280;34232;42.502;26.014;2022-08-19T05:58:28;99600.41;;;29.61;50.92
48424;BME280;34232;42.502;26.014;2022-08-19T06:00:53;99605.31;;;29.64;47.85
48424;BME280;34232;42.502;26.014;2022-08-19T06:03:19;99602.41;;;29.76;48.51
48424;BME280;34232;42.502;26.014;2022-08-19T06:05:44;99608.75;;;29.97;47.73
48424;BME280;34232;42.502;26.014;2022-08-19T06:08:10;99606.44;;;30.20;45.86
48424;BME280;34232;42.502;26.014;2022-08-19T06:10:36;99610.88;;;30.42;46.43
48424;BME280;34232;42.502;26.014;2022-08-19T06:13:01;99610.63;;;30.53;45.54
48424;BME280;34232;42.502;26.014;2022-08-19T06:15:27;99616.06;;;30.53;44.73
48424;BME280;34232;42.502;26.014;2022-08-19T06:17:53;99615.00;;;30.54;45.00
48424;BME280;34232;42.502;26.014;2022-08-19T06:20:18;99612.31;;;30.70;45.98
48424;BME280;34232;42.502;26.014;2022-08-19T06:22:46;99616.16;;;30.79;44.92
48424;BME280;34232;42.502;26.014;2022-08-19T06:25:12;99612.88;;;30.67;43.95
48424;BME280;34232;42.502;26.014;2022-08-19T06:27:37;99622.13;;;30.86;43.73
48424;BME280;34232;42.502;26.014;2022-08-19T06:30:03;99619.44;;;30.96;43.87
48424;BME280;34232;42.502;26.014;2022-08-19T06:32:29;99620.56;;;31.15;42.13
48424;BME280;34232;42.502;26.014;2022-08-19T06:34:55;99617.81;;;31.41;41.93
48424;BME280;34232;42.502;26.014;2022-08-19T06:37:20;99617.25;;;31.54;41.74
48424;BME280;34232;42.502;26.014;2022-08-19T06:39:46;99615.91;;;31.56;41.48
48424;BME280;34232;42.502;26.014;2022-08-19T06:42:11;99614.81;;;31.62;40.35
48424;BME280;34232;42.502;26.014;2022-08-19T06:44:41;99623.75;;;31.88;39.14
48424;BME280;34232;42.502;26.014;2022-08-19T06:47:07;99621.00;;;31.98;38.34
48424;BME280;34232;42.502;26.014;2022-08-19T06:49:34;99617.66;;;32.22;38.55
48424;BME280;34232;42.502;26.014;2022-08-19T06:51:59;99620.25;;;32.47;37.66
48424;BME280;34232;42.502;26.014;2022-08-19T06:54:25;99617.97;;;32.69;38.54
48424;BME280;34232;42.502;26.014;2022-08-19T06:56:51;99621.22;;;32.72;35.56
48424;BME280;34232;42.502;26.014;2022-08-19T06:59:18;99613.69;;;32.58;35.94
48424;BME280;34232;42.502;26.014;2022-08-19T07:01:45;99614.94;;;32.71;35.59
48424;BME280;34232;42.502;26.014;2022-08-19T07:04:12;99613.59;;;32.74;35.93
48424;BME280;34232;42.502;26.014;2022-08-19T07:06:38;99606.94;;;32.90;36.82
48424;BME280;34232;42.502;26.014;2022-08-19T07:09:04;99607.38;;;33.07;37.25
48424;BME280;34232;42.502;26.014;2022-08-19T07:11:30;99602.31;;;33.24;37.70
48424;BME280;34232;42.502;26.014;2022-08-19T07:13:57;99601.25;;;33.25;36.12
48424;BME280;34232;42.502;26.014;2022-08-19T07:16:22;99604.56;;;33.12;35.92
48424;BME280;34232;42.502;26.014;2022-08-19T07:18:48;99592.78;;;33.22;35.72
48424;BME280;34232;42.502;26.014;2022-08-19T07:21:15;99602.00;;;33.31;35.46
48424;BME280;34232;42.502;26.014;2022-08-19T07:23:42;99596.09;;;33.48;35.41
48424;BME280;34232;42.502;26.014;2022-08-19T07:26:08;99589.91;;;33.66;36.05
48424;BME280;34232;42.502;26.014;2022-08-19T07:28:34;99602.78;;;33.89;34.51
48424;BME280;34232;42.502;26.014;2022-08-19T07:30:59;99598.25;;;34.03;34.72
48424;BME280;34232;42.502;26.014;2022-08-19T07:33:26;99598.59;;;34.21;33.68
48424;BME280;34232;42.502;26.014;2022-08-19T07:35:52;99602.03;;;34.26;34.16
48424;BME280;34232;42.502;26.014;2022-08-19T07:38:17;99602.03;;;34.26;33.67
48424;BME280;34232;42.502;26.014;2022-08-19T07:40:43;99594.75;;;33.98;32.84
48424;BME280;34232;42.502;26.014;2022-08-19T07:43:11;99589.81;;;34.24;33.68
48424;BME280;34232;42.502;26.014;2022-08-19T07:45:36;99593.00;;;34.31;32.12
48424;BME280;34232;42.502;26.014;2022-08-19T07:48:01;99590.50;;;34.53;33.95
48424;BME280;34232;42.502;26.014;2022-08-19T07:50:26;99585.91;;;34.67;32.04
48424;BME280;34232;42.502;26.014;2022-08-19T07:52:52;99590.00;;;34.70;32.56
48424;BME280;34232;42.502;26.014;2022-08-19T07:55:19;99577.44;;;34.88;32.68
48424;BME280;34232;42.502;26.014;2022-08-19T07:57:45;99580.59;;;34.95;32.23
48424;BME280;34232;42.502;26.014;2022-08-19T08:00:11;99581.63;;;34.99;32.52
48424;BME280;34232;42.502;26.014;2022-08-19T08:02:36;99580.16;;;35.20;32.08
48424;BME280;34232;42.502;26.014;2022-08-19T08:05:03;99576.22;;;35.26;31.90
48424;BME280;34232;42.502;26.014;2022-08-19T08:07:47;99576.50;;;35.25;30.15
48424;BME280;34232;42.502;26.014;2022-08-19T08:10:30;99572.31;;;35.32;31.39
48424;BME280;34232;42.502;26.014;2022-08-19T08:12:57;99570.41;;;35.47;31.13
48424;BME280;34232;42.502;26.014;2022-08-19T08:15:22;99571.22;;;35.61;30.61
48424;BME280;34232;42.502;26.014;2022-08-19T08:17:47;99562.72;;;35.76;30.11
48424;BME280;34232;42.502;26.014;2022-08-19T08:20:14;99577.56;;;36.02;30.27
48424;BME280;34232;42.502;26.014;2022-08-19T08:22:42;99566.25;;;36.18;30.11
48424;BME280;34232;42.502;26.014;2022-08-19T08:25:27;99577.28;;;36.40;30.81
48424;BME280;34232;42.502;26.014;2022-08-19T08:27:52;99577.09;;;36.50;29.54
48424;BME280;34232;42.502;26.014;2022-08-19T08:30:19;99571.75;;;36.67;29.10
48424;BME280;34232;42.502;26.014;2022-08-19T08:32:45;99565.59;;;36.70;28.81
48424;BME280;34232;42.502;26.014;2022-08-19T08:35:12;99565.97;;;36.91;28.25
48424;BME280;34232;42.502;26.014;2022-08-19T08:37:38;99563.22;;;36.91;28.12
48424;BME280;34232;42.502;26.014;2022-08-19T08:40:05;99565.88;;;37.05;27.27
48424;BME280;34232;42.502;26.014;2022-08-19T08:42:32;99569.88;;;37.21;28.67
48424;BME280;34232;42.502;26.014;2022-08-19T08:47:25;99560.72;;;37.26;26.94
48424;BME280;34232;42.502;26.014;2022-08-19T08:49:58;99555.63;;;37.41;27.07
48424;BME280;34232;42.502;26.014;2022-08-19T08:52:29;99553.72;;;37.51;26.90
48424;BME280;34232;42.502;26.014;2022-08-19T08:54:57;99551.97;;;37.55;27.08
48424;BME280;34232;42.502;26.014;2022-08-19T08:57:28;99558.91;;;36.99;26.45
48424;BME280;34232;42.502;26.014;2022-08-19T08:59:56;99553.16;;;36.87;27.52
48424;BME280;34232;42.502;26.014;2022-08-19T09:02:22;99544.81;;;36.92;26.96
48424;BME280;34232;42.502;26.014;2022-08-19T09:04:47;99546.53;;;37.10;27.26
48424;BME280;34232;42.502;26.014;2022-08-19T09:09:50;99539.50;;;37.48;26.96
48424;BME280;34232;42.502;26.014;2022-08-19T09:17:13;99539.25;;;38.15;25.40
48424;BME280;34232;42.502;26.014;2022-08-19T09:19:50;99529.88;;;38.34;25.57
48424;BME280;34232;42.502;26.014;2022-08-19T09:22:15;99534.72;;;38.54;24.29
48424;BME280;34232;42.502;26.014;2022-08-19T09:24:41;99528.59;;;38.74;24.58
48424;BME280;34232;42.502;26.014;2022-08-19T09:27:06;99519.34;;;38.88;24.17
48424;BME280;34232;42.502;26.014;2022-08-19T09:29:31;99516.56;;;39.05;24.96
48424;BME280;34232;42.502;26.014;2022-08-19T09:31:57;99515.63;;;38.83;24.44
48424;BME280;34232;42.502;26.014;2022-08-19T09:34:22;99519.19;;;38.93;25.42
48424;BME280;34232;42.502;26.014;2022-08-19T09:36:48;99514.16;;;38.95;23.92
48424;BME280;34232;42.502;26.014;2022-08-19T09:39:14;99518.47;;;39.13;23.88
48424;BME280;34232;42.502;26.014;2022-08-19T09:41:39;99521.59;;;39.11;22.59
48424;BME280;34232;42.502;26.014;2022-08-19T09:44:04;99519.09;;;39.27;22.98
48424;BME280;34232;42.502;26.014;2022-08-19T09:46:30;99515.50;;;39.35;23.05
48424;BME280;34232;42.502;26.014;2022-08-19T09:48:57;99519.81;;;39.53;22.32
48424;BME280;34232;42.502;26.014;2022-08-19T09:51:24;99513.81;;;39.60;21.98
48424;BME280;34232;42.502;26.014;2022-08-19T09:53:51;99511.47;;;39.71;22.98
48424;BME280;34232;42.502;26.014;2022-08-19T09:56:19;99518.19;;;39.61;24.19
48424;BME280;34232;42.502;26.014;2022-08-19T09:58:45;99501.53;;;39.40;23.82
48424;BME280;34232;42.502;26.014;2022-08-19T10:01:17;99508.97;;;39.10;23.40
48424;BME280;34232;42.502;26.014;2022-08-19T10:03:46;99509.94;;;38.89;24.07
48424;BME280;34232;42.502;26.014;2022-08-19T10:06:11;99507.50;;;38.96;23.16
48424;BME280;34232;42.502;26.014;2022-08-19T10:08:36;99519.50;;;39.00;24.40
48424;BME280;34232;42.502;26.014;2022-08-19T10:11:03;99510.41;;;39.08;24.02
48424;BME280;34232;42.502;26.014;2022-08-19T10:13:29;99513.19;;;38.91;24.78
48424;BME280;34232;42.502;26.014;2022-08-19T10:15:56;99505.75;;;38.82;25.56
48424;BME280;34232;42.502;26.014;2022-08-19T10:18:22;99509.47;;;38.52;25.11
48424;BME280;34232;42.502;26.014;2022-08-19T10:20:48;99503.03;;;38.13;24.92
48424;BME280;34232;42.502;26.014;2022-08-19T10:23:14;99508.53;;;38.13;25.02
48424;BME280;34232;42.502;26.014;2022-08-19T10:25:40;99501.25;;;38.26;24.51
48424;BME280;34232;42.502;26.014;2022-08-19T10:28:05;99505.59;;;38.53;24.87
48424;BME280;34232;42.502;26.014;2022-08-19T10:30:31;99502.34;;;38.85;26.22
48424;BME280;34232;42.502;26.014;2022-08-19T10:32:56;99508.47;;;39.00;25.48
48424;BME280;34232;42.502;26.014;2022-08-19T10:35:21;99502.66;;;38.84;25.40
48424;BME280;34232;42.502;26.014;2022-08-19T10:37:47;99508.19;;;38.67;25.02
48424;BME280;34232;42.502;26.014;2022-08-19T10:40:12;99499.94;;;38.67;24.50
48424;BME280;34232;42.502;26.014;2022-08-19T10:42:38;99488.09;;;38.83;23.38
48424;BME280;34232;42.502;26.014;2022-08-19T10:45:03;99499.09;;;39.01;24.13
48424;BME280;34232;42.502;26.014;2022-08-19T10:47:30;99491.16;;;38.91;24.30
48424;BME280;34232;42.502;26.014;2022-08-19T10:49:56;99490.91;;;38.58;23.36
48424;BME280;34232;42.502;26.014;2022-08-19T10:52:40;99491.34;;;38.34;23.98
48424;BME280;34232;42.502;26.014;2022-08-19T10:55:07;99491.53;;;38.11;26.62
48424;BME280;34232;42.502;26.014;2022-08-19T10:57:51;99491.22;;;38.13;26.68
48424;BME280;34232;42.502;26.014;2022-08-19T11:00:17;99492.63;;;37.93;27.20
48424;BME280;34232;42.502;26.014;2022-08-19T11:02:43;99486.91;;;37.72;26.19
48424;BME280;34232;42.502;26.014;2022-08-19T11:05:08;99476.13;;;37.93;25.32
48424;BME280;34232;42.502;26.014;2022-08-19T11:07:36;99476.00;;;38.24;25.13
48424;BME280;34232;42.502;26.014;2022-08-19T11:10:03;99468.41;;;38.47;23.44
48424;BME280;34232;42.502;26.014;2022-08-19T11:12:28;99468.25;;;38.61;24.75
48424;BME280;34232;42.502;26.014;2022-08-19T11:14:53;99468.16;;;38.87;24.41
48424;BME280;34232;42.502;26.014;2022-08-19T11:17:19;99468.31;;;38.81;24.58
48424;BME280;34232;42.502;26.014;2022-08-19T11:19:45;99470.97;;;38.69;25.75
48424;BME280;34232;42.502;26.014;2022-08-19T11:22:11;99469.53;;;38.63;26.32
48424;BME280;34232;42.502;26.014;2022-08-19T11:24:37;99465.97;;;38.63;26.30
48424;BME280;34232;42.502;26.014;2022-08-19T11:27:04;99469.19;;;38.65;24.83
48424;BME280;34232;42.502;26.014;2022-08-19T11:29:30;99461.72;;;38.65;25.90
48424;BME280;34232;42.502;26.014;2022-08-19T11:31:55;99448.59;;;38.79;24.20
48424;BME280;34232;42.502;26.014;2022-08-19T11:34:22;99455.03;;;39.01;23.51
48424;BME280;34232;42.502;26.014;2022-08-19T11:36:48;99449.16;;;39.11;23.76
48424;BME280;34232;42.502;26.014;2022-08-19T11:39:14;99456.06;;;39.26;23.97
48424;BME280;34232;42.502;26.014;2022-08-19T11:41:40;99453.81;;;39.19;23.04
48424;BME280;34232;42.502;26.014;2022-08-19T11:44:06;99457.59;;;39.06;22.61
48424;BME280;34232;42.502;26.014;2022-08-19T11:46:32;99453.91;;;38.84;24.13
48424;BME280;34232;42.502;26.014;2022-08-19T11:48:59;99448.16;;;38.60;24.32
48424;BME280;34232;42.502;26.014;2022-08-19T11:51:25;99453.19;;;38.24;25.35
48424;BME280;34232;42.502;26.014;2022-08-19T11:53:52;99445.09;;;38.10;24.87
48424;BME280;34232;42.502;26.014;2022-08-19T11:56:18;99440.91;;;38.12;25.38
48424;BME280;34232;42.502;26.014;2022-08-19T11:58:44;99441.84;;;38.16;25.19
48424;BME280;34232;42.502;26.014;2022-08-19T12:01:10;99447.03;;;38.27;25.54
48424;BME280;34232;42.502;26.014;2022-08-19T12:03:36;99441.53;;;38.27;25.26
48424;BME280;34232;42.502;26.014;2022-08-19T12:06:05;99442.00;;;38.03;25.19
48424;BME280;34232;42.502;26.014;2022-08-19T12:08:31;99439.41;;;37.89;25.82
48424;BME280;34232;42.502;26.014;2022-08-19T12:10:56;99446.34;;;37.78;27.20
48424;BME280;34232;42.502;26.014;2022-08-19T12:13:21;99438.25;;;37.73;27.83
48424;BME280;34232;42.502;26.014;2022-08-19T12:15:47;99440.84;;;37.87;27.04
48424;BME280;34232;42.502;26.014;2022-08-19T12:18:12;99432.63;;;37.95;27.19
48424;BME280;34232;42.502;26.014;2022-08-19T12:20:39;99432.28;;;38.05;26.74
48424;BME280;34232;42.502;26.014;2022-08-19T12:23:05;99431.16;;;37.89;26.01
48424;BME280;34232;42.502;26.014;2022-08-19T12:25:31;99430.66;;;37.78;25.67
48424;BME280;34232;42.502;26.014;2022-08-19T12:27:56;99436.16;;;37.87;26.20
48424;BME280;34232;42.502;26.014;2022-08-19T12:30:22;99431.16;;;37.89;26.06
48424;BME280;34232;42.502;26.014;2022-08-19T12:32:47;99427.09;;;37.78;28.04
48424;BME280;34232;42.502;26.014;2022-08-19T12:35:12;99431.31;;;37.75;28.35
48424;BME280;34232;42.502;26.014;2022-08-19T12:37:38;99428.53;;;37.67;28.42
48424;BME280;34232;42.502;26.014;2022-08-19T12:40:04;99429.50;;;37.71;27.07
48424;BME280;34232;42.502;26.014;2022-08-19T12:42:29;99426.63;;;37.76;26.09
48424;BME280;34232;42.502;26.014;2022-08-19T12:44:55;99431.47;;;37.79;25.61
48424;BME280;34232;42.502;26.014;2022-08-19T12:47:20;99424.84;;;37.80;25.80
48424;BME280;34232;42.502;26.014;2022-08-19T12:49:46;99421.75;;;37.73;26.78
48424;BME280;34232;42.502;26.014;2022-08-19T12:52:12;99422.41;;;37.70;27.11
48424;BME280;34232;42.502;26.014;2022-08-19T12:54:40;99424.00;;;37.71;26.42
48424;BME280;34232;42.502;26.014;2022-08-19T12:57:06;99422.09;;;37.80;26.51
48424;BME280;34232;42.502;26.014;2022-08-19T12:59:32;99418.53;;;37.88;24.99
48424;BME280;34232;42.502;26.014;2022-08-19T13:01:58;99428.25;;;37.94;25.22
48424;BME280;34232;42.502;26.014;2022-08-19T13:04:26;99419.03;;;37.99;25.97